createdAt,value
2018-06-13T00:00:09.840Z,1008.02
2018-06-13T00:00:36.003Z,1008.01
2018-06-13T00:01:02.147Z,1008.03
2018-06-13T00:01:28.305Z,1008.07
2018-06-13T00:01:54.446Z,1008.09
2018-06-13T00:02:20.581Z,1008.04
2018-06-13T00:02:46.723Z,1008.04
2018-06-13T00:03:12.884Z,1008.03
2018-06-13T00:03:39.024Z,1008.02
2018-06-13T00:04:05.171Z,1008.04
2018-06-13T00:04:31.331Z,1008.03
2018-06-13T00:04:57.466Z,1008.02
2018-06-13T00:05:23.609Z,1008.01
2018-06-13T00:05:49.743Z,1008.01
2018-06-13T00:06:15.909Z,1007.99
2018-06-13T00:06:42.051Z,1008
2018-06-13T00:07:08.182Z,1007.96
2018-06-13T00:07:34.324Z,1008
2018-06-13T00:08:00.468Z,1007.99
2018-06-13T00:08:26.607Z,1007.96
2018-06-13T00:08:52.852Z,1007.98
2018-06-13T00:09:18.997Z,1007.96
2018-06-13T00:09:45.273Z,1007.96
2018-06-13T00:10:11.344Z,1008.01
2018-06-13T00:10:37.486Z,1008
2018-06-13T00:11:03.654Z,1007.99
2018-06-13T00:11:29.794Z,1008
2018-06-13T00:11:55.928Z,1008.02
2018-06-13T00:12:22.069Z,1007.9
2018-06-13T00:12:48.253Z,1007.95
2018-06-13T00:13:14.414Z,1007.95
2018-06-13T00:13:40.555Z,1007.96
2018-06-13T00:14:06.711Z,1007.94
2018-06-13T00:14:32.886Z,1007.95
2018-06-13T00:14:59.024Z,1007.97
2018-06-13T00:15:25.192Z,1007.98
2018-06-13T00:15:51.331Z,1007.99
2018-06-13T00:16:17.472Z,1007.97
2018-06-13T00:16:43.611Z,1007.99
2018-06-13T00:17:09.778Z,1007.99
2018-06-13T00:17:35.940Z,1008
2018-06-13T00:18:02.081Z,1008
2018-06-13T00:18:28.224Z,1008.03
2018-06-13T00:18:54.363Z,1008.04
2018-06-13T00:19:20.508Z,1007.98
2018-06-13T00:19:46.648Z,1008.01
2018-06-13T00:20:12.792Z,1008.04
2018-06-13T00:20:38.932Z,1008.05
2018-06-13T00:21:05.070Z,1008.05
2018-06-13T00:21:31.233Z,1008.07
2018-06-13T00:21:57.373Z,1008.08
2018-06-13T00:22:23.514Z,1008.04
2018-06-13T00:22:49.649Z,1008.09
2018-06-13T00:23:15.796Z,1008.08
2018-06-13T00:23:41.938Z,1008.09
2018-06-13T00:24:08.075Z,1008.07
2018-06-13T00:24:34.246Z,1008.1
2018-06-13T00:25:00.411Z,1008.1
2018-06-13T00:25:26.520Z,1008.09
2018-06-13T00:25:52.686Z,1008.08
2018-06-13T00:26:18.847Z,1008.09
2018-06-13T00:26:45.013Z,1008.09
2018-06-13T00:27:11.168Z,1008.08
2018-06-13T00:27:37.311Z,1008.08
2018-06-13T00:28:03.446Z,1008.12
2018-06-13T00:28:29.591Z,1008.1
2018-06-13T00:28:55.731Z,1008.13
2018-06-13T00:29:21.871Z,1008.13
2018-06-13T00:29:48.025Z,1008.1
2018-06-13T00:30:14.173Z,1008.14
2018-06-13T00:30:40.309Z,1008.12
2018-06-13T00:31:06.454Z,1008.13
2018-06-13T00:31:32.592Z,1008.11
2018-06-13T00:31:58.759Z,1008.13
2018-06-13T00:32:24.975Z,1008.1
2018-06-13T00:32:51.062Z,1008.11
2018-06-13T00:33:17.198Z,1008.13
2018-06-13T00:33:43.366Z,1008.08
2018-06-13T00:34:09.528Z,1008.05
2018-06-13T00:34:35.669Z,1008.11
2018-06-13T00:35:01.808Z,1008.12
2018-06-13T00:35:27.947Z,1008.11
2018-06-13T00:35:54.086Z,1008.11
2018-06-13T00:36:20.229Z,1008.13
2018-06-13T00:36:46.361Z,1008.1
2018-06-13T00:37:12.600Z,1008.1
2018-06-13T00:37:38.702Z,1008.12
2018-06-13T00:38:04.835Z,1008.13
2018-06-13T00:38:31.000Z,1008.12
2018-06-13T00:38:57.138Z,1008.11
2018-06-13T00:39:23.273Z,1008.14
2018-06-13T00:39:49.416Z,1008.15
2018-06-13T00:40:15.553Z,1008.16
2018-06-13T00:40:41.693Z,1008.15
2018-06-13T00:41:07.856Z,1008.2
2018-06-13T00:41:33.988Z,1008.17
2018-06-13T00:42:00.126Z,1008.18
2018-06-13T00:42:26.304Z,1008.16
2018-06-13T00:42:52.442Z,1008.14
2018-06-13T00:43:18.582Z,1008.19
2018-06-13T00:43:44.718Z,1008.17
2018-06-13T00:44:10.857Z,1008.15
2018-06-13T00:44:36.993Z,1008.21
2018-06-13T00:45:03.159Z,1008.21
2018-06-13T00:45:29.320Z,1008.16
2018-06-13T00:45:55.481Z,1008.14
2018-06-13T00:46:21.618Z,1008.13
2018-06-13T00:46:47.759Z,1008.13
2018-06-13T00:47:13.897Z,1008.12
2018-06-13T00:47:40.041Z,1008.14
2018-06-13T00:48:06.180Z,1008.15
2018-06-13T00:48:32.340Z,1008.11
2018-06-13T00:48:58.483Z,1008.11
2018-06-13T00:49:24.631Z,1008.08
2018-06-13T00:49:50.769Z,1008.13
2018-06-13T00:50:16.934Z,1008.12
2018-06-13T00:50:43.072Z,1008.12
2018-06-13T00:51:09.209Z,1008.12
2018-06-13T00:51:35.348Z,1008.14
2018-06-13T00:52:01.488Z,1008.1
2018-06-13T00:52:27.626Z,1008.14
2018-06-13T00:52:53.772Z,1008.1
2018-06-13T00:53:19.913Z,1008.12
2018-06-13T00:53:46.044Z,1008.12
2018-06-13T00:54:12.183Z,1008.1
2018-06-13T00:54:38.325Z,1008.11
2018-06-13T00:55:04.473Z,1008.11
2018-06-13T00:55:30.604Z,1008.11
2018-06-13T00:55:56.742Z,1008.12
2018-06-13T00:56:22.878Z,1008.14
2018-06-13T00:56:49.021Z,1008.16
2018-06-13T00:57:15.155Z,1008.16
2018-06-13T00:57:41.455Z,1008.16
2018-06-13T00:58:07.621Z,1008.13
2018-06-13T00:58:33.765Z,1008.18
2018-06-13T00:58:59.924Z,1008.15
2018-06-13T00:59:26.068Z,1008.14
2018-06-13T00:59:52.224Z,1008.17
2018-06-13T01:00:18.357Z,1008.17
2018-06-13T01:00:44.499Z,1008.16
2018-06-13T01:01:10.650Z,1008.16
2018-06-13T01:01:36.812Z,1008.19
2018-06-13T01:02:02.952Z,1008.14
2018-06-13T01:02:29.088Z,1008.2
2018-06-13T01:02:55.247Z,1008.18
2018-06-13T01:03:21.417Z,1008.19
2018-06-13T01:03:47.575Z,1008.18
2018-06-13T01:04:13.718Z,1008.19
2018-06-13T01:04:39.860Z,1008.16
2018-06-13T01:05:06.017Z,1008.15
2018-06-13T01:05:32.151Z,1008.17
2018-06-13T01:05:58.298Z,1008.23
2018-06-13T01:06:24.438Z,1008.2
2018-06-13T01:06:50.583Z,1008.19
2018-06-13T01:07:16.719Z,1008.18
2018-06-13T01:07:42.861Z,1008.21
2018-06-13T01:08:09.013Z,1008.19
2018-06-13T01:08:35.152Z,1008.16
2018-06-13T01:09:01.300Z,1008.21
2018-06-13T01:09:27.458Z,1008.2
2018-06-13T01:09:53.595Z,1008.18
2018-06-13T01:10:19.756Z,1008.2
2018-06-13T01:10:45.892Z,1008.2
2018-06-13T01:11:12.031Z,1008.18
2018-06-13T01:11:38.198Z,1008.16
2018-06-13T01:12:04.337Z,1008.16
2018-06-13T01:12:30.465Z,1008.19
2018-06-13T01:12:56.634Z,1008.15
2018-06-13T01:13:22.778Z,1008.13
2018-06-13T01:13:48.918Z,1008.19
2018-06-13T01:14:15.052Z,1008.16
2018-06-13T01:14:41.193Z,1008.18
2018-06-13T01:15:07.339Z,1008.13
2018-06-13T01:15:33.495Z,1008.18
2018-06-13T01:15:59.632Z,1008.17
2018-06-13T01:16:25.776Z,1008.19
2018-06-13T01:16:51.924Z,1008.14
2018-06-13T01:17:18.061Z,1008.17
2018-06-13T01:17:44.195Z,1008.18
2018-06-13T01:18:10.362Z,1008.16
2018-06-13T01:18:36.514Z,1008.19
2018-06-13T01:19:02.655Z,1008.19
2018-06-13T01:19:28.803Z,1008.22
2018-06-13T01:19:54.940Z,1008.16
2018-06-13T01:20:21.078Z,1008.21
2018-06-13T01:20:47.219Z,1008.23
2018-06-13T01:21:13.402Z,1008.25
2018-06-13T01:21:39.538Z,1008.24
2018-06-13T01:22:05.681Z,1008.24
2018-06-13T01:22:31.830Z,1008.22
2018-06-13T01:22:57.971Z,1008.21
2018-06-13T01:23:24.112Z,1008.24
2018-06-13T01:23:50.292Z,1008.24
2018-06-13T01:24:16.437Z,1008.23
2018-06-13T01:24:42.580Z,1008.21
2018-06-13T01:25:08.721Z,1008.21
2018-06-13T01:25:34.882Z,1008.23
2018-06-13T01:26:01.053Z,1008.18
2018-06-13T01:26:27.218Z,1008.19
2018-06-13T01:26:53.350Z,1008.2
2018-06-13T01:27:19.486Z,1008.21
2018-06-13T01:27:45.627Z,1008.21
2018-06-13T01:28:11.767Z,1008.18
2018-06-13T01:28:37.908Z,1008.19
2018-06-13T01:29:04.042Z,1008.22
2018-06-13T01:29:30.208Z,1008.19
2018-06-13T01:29:56.369Z,1008.19
2018-06-13T01:30:22.502Z,1008.2
2018-06-13T01:30:48.645Z,1008.21
2018-06-13T01:31:14.781Z,1008.24
2018-06-13T01:31:40.918Z,1008.2
2018-06-13T01:32:07.056Z,1008.24
2018-06-13T01:32:33.200Z,1008.23
2018-06-13T01:32:59.374Z,1008.22
2018-06-13T01:33:25.534Z,1008.21
2018-06-13T01:33:51.678Z,1008.23
2018-06-13T01:34:17.815Z,1008.21
2018-06-13T01:34:43.951Z,1008.2
2018-06-13T01:35:10.095Z,1008.23
2018-06-13T01:35:36.227Z,1008.25
2018-06-13T01:36:02.367Z,1008.24
2018-06-13T01:36:28.511Z,1008.23
2018-06-13T01:36:54.643Z,1008.22
2018-06-13T01:37:20.809Z,1008.2
2018-06-13T01:37:46.947Z,1008.24
2018-06-13T01:38:13.114Z,1008.21
2018-06-13T01:38:39.249Z,1008.22
2018-06-13T01:39:05.393Z,1008.19
2018-06-13T01:39:31.532Z,1008.18
2018-06-13T01:39:57.665Z,1008.18
2018-06-13T01:40:23.808Z,1008.22
2018-06-13T01:40:49.976Z,1008.23
2018-06-13T01:41:16.135Z,1008.24
2018-06-13T01:41:42.303Z,1008.23
2018-06-13T01:42:08.446Z,1008.25
2018-06-13T01:42:34.583Z,1008.25
2018-06-13T01:43:00.740Z,1008.26
2018-06-13T01:43:26.929Z,1008.21
2018-06-13T01:43:53.067Z,1008.23
2018-06-13T01:44:19.212Z,1008.21
2018-06-13T01:44:45.347Z,1008.23
2018-06-13T01:45:11.488Z,1008.23
2018-06-13T01:45:37.619Z,1008.22
2018-06-13T01:46:03.763Z,1008.24
2018-06-13T01:46:29.902Z,1008.23
2018-06-13T01:46:56.044Z,1008.27
2018-06-13T01:47:22.178Z,1008.2
2018-06-13T01:47:48.316Z,1008.2
2018-06-13T01:48:14.451Z,1008.24
2018-06-13T01:48:40.593Z,1008.3
2018-06-13T01:49:06.738Z,1008.26
2018-06-13T01:49:32.868Z,1008.23
2018-06-13T01:49:59.009Z,1008.3
2018-06-13T01:50:25.147Z,1008.27
2018-06-13T01:50:51.285Z,1008.26
2018-06-13T01:51:17.451Z,1008.3
2018-06-13T01:51:43.589Z,1008.29
2018-06-13T01:52:09.726Z,1008.28
2018-06-13T01:52:35.864Z,1008.27
2018-06-13T01:53:02.032Z,1008.28
2018-06-13T01:53:28.174Z,1008.26
2018-06-13T01:53:54.338Z,1008.28
2018-06-13T01:54:20.482Z,1008.27
2018-06-13T01:54:46.622Z,1008.27
2018-06-13T01:55:12.754Z,1008.27
2018-06-13T01:55:38.893Z,1008.24
2018-06-13T01:56:05.035Z,1008.28
2018-06-13T01:56:31.180Z,1008.27
2018-06-13T01:56:57.349Z,1008.28
2018-06-13T01:57:23.486Z,1008.24
2018-06-13T01:57:49.616Z,1008.21
2018-06-13T01:58:15.761Z,1008.22
2018-06-13T01:58:41.899Z,1008.26
2018-06-13T01:59:08.042Z,1008.26
2018-06-13T01:59:34.180Z,1008.24
2018-06-13T02:00:00.321Z,1008.25
2018-06-13T02:00:26.457Z,1008.23
2018-06-13T02:00:52.597Z,1008.23
2018-06-13T02:01:18.772Z,1008.23
2018-06-13T02:01:44.880Z,1008.22
2018-06-13T02:02:11.019Z,1008.26
2018-06-13T02:02:37.158Z,1008.23
2018-06-13T02:03:03.296Z,1008.23
2018-06-13T02:03:29.440Z,1008.23
2018-06-13T02:03:55.604Z,1008.26
2018-06-13T02:04:21.735Z,1008.24
2018-06-13T02:04:47.880Z,1008.24
2018-06-13T02:05:14.016Z,1008.21
2018-06-13T02:05:40.148Z,1008.22
2018-06-13T02:06:06.288Z,1008.25
2018-06-13T02:06:32.425Z,1008.24
2018-06-13T02:06:58.564Z,1008.25
2018-06-13T02:07:24.705Z,1008.25
2018-06-13T02:07:50.877Z,1008.28
2018-06-13T02:08:17.064Z,1008.28
2018-06-13T02:08:43.205Z,1008.26
2018-06-13T02:09:09.341Z,1008.26
2018-06-13T02:09:35.479Z,1008.23
2018-06-13T02:10:01.622Z,1008.25
2018-06-13T02:10:27.755Z,1008.27
2018-06-13T02:10:53.893Z,1008.23
2018-06-13T02:11:20.043Z,1008.27
2018-06-13T02:11:46.212Z,1008.27
2018-06-13T02:12:12.372Z,1008.28
2018-06-13T02:12:38.517Z,1008.29
2018-06-13T02:13:04.685Z,1008.27
2018-06-13T02:13:30.848Z,1008.25
2018-06-13T02:13:56.986Z,1008.27
2018-06-13T02:14:23.125Z,1008.29
2018-06-13T02:14:49.294Z,1008.26
2018-06-13T02:15:15.433Z,1008.3
2018-06-13T02:15:41.572Z,1008.29
2018-06-13T02:16:07.705Z,1008.28
2018-06-13T02:16:33.873Z,1008.26
2018-06-13T02:17:00.014Z,1008.32
2018-06-13T02:17:26.161Z,1008.3
2018-06-13T02:17:52.296Z,1008.27
2018-06-13T02:18:18.430Z,1008.28
2018-06-13T02:18:44.567Z,1008.31
2018-06-13T02:19:10.735Z,1008.28
2018-06-13T02:19:36.874Z,1008.27
2018-06-13T02:20:03.070Z,1008.3
2018-06-13T02:20:29.205Z,1008.32
2018-06-13T02:20:55.343Z,1008.3
2018-06-13T02:21:21.496Z,1008.28
2018-06-13T02:21:48.025Z,1008.29
2018-06-13T02:22:14.817Z,1008.28
2018-06-13T02:22:41.553Z,1008.3
2018-06-13T02:23:07.889Z,1008.26
2018-06-13T02:23:34.033Z,1008.28
2018-06-13T02:24:00.196Z,1008.28
2018-06-13T02:24:26.324Z,1008.29
2018-06-13T02:24:52.465Z,1008.28
2018-06-13T02:25:18.602Z,1008.3
2018-06-13T02:25:44.740Z,1008.28
2018-06-13T02:26:10.880Z,1008.26
2018-06-13T02:26:37.023Z,1008.26
2018-06-13T02:27:03.163Z,1008.28
2018-06-13T02:27:29.296Z,1008.28
2018-06-13T02:27:55.435Z,1008.3
2018-06-13T02:28:21.573Z,1008.31
2018-06-13T02:28:47.713Z,1008.26
2018-06-13T02:29:13.857Z,1008.29
2018-06-13T02:29:39.998Z,1008.28
2018-06-13T02:30:06.137Z,1008.31
2018-06-13T02:30:32.289Z,1008.28
2018-06-13T02:30:58.443Z,1008.28
2018-06-13T02:31:24.607Z,1008.29
2018-06-13T02:31:50.831Z,1008.28
2018-06-13T02:32:16.975Z,1008.27
2018-06-13T02:32:43.106Z,1008.27
2018-06-13T02:33:09.268Z,1008.27
2018-06-13T02:33:35.424Z,1008.32
2018-06-13T02:34:01.561Z,1008.29
2018-06-13T02:34:27.730Z,1008.31
2018-06-13T02:34:53.871Z,1008.3
2018-06-13T02:35:20.091Z,1008.29
2018-06-13T02:35:46.269Z,1008.32
2018-06-13T02:36:12.442Z,1008.28
2018-06-13T02:36:38.570Z,1008.32
2018-06-13T02:37:04.749Z,1008.3
2018-06-13T02:37:30.888Z,1008.28
2018-06-13T02:37:57.076Z,1008.29
2018-06-13T02:38:23.242Z,1008.3
2018-06-13T02:38:49.382Z,1008.33
2018-06-13T02:39:15.558Z,1008.27
2018-06-13T02:39:41.723Z,1008.34
2018-06-13T02:40:07.897Z,1008.3
2018-06-13T02:40:34.079Z,1008.29
2018-06-13T02:41:00.243Z,1008.33
2018-06-13T02:41:26.397Z,1008.3
2018-06-13T02:41:52.531Z,1008.29
2018-06-13T02:42:18.669Z,1008.33
2018-06-13T02:42:44.858Z,1008.3
2018-06-13T02:43:11.023Z,1008.31
2018-06-13T02:43:37.165Z,1008.31
2018-06-13T02:44:03.295Z,1008.31
2018-06-13T02:44:29.462Z,1008.26
2018-06-13T02:44:55.624Z,1008.29
2018-06-13T02:45:21.761Z,1008.29
2018-06-13T02:45:47.929Z,1008.26
2018-06-13T02:46:14.129Z,1008.26
2018-06-13T02:46:40.264Z,1008.26
2018-06-13T02:47:06.414Z,1008.23
2018-06-13T02:47:32.584Z,1008.25
2018-06-13T02:47:58.724Z,1008.24
2018-06-13T02:48:24.866Z,1008.22
2018-06-13T02:48:51.032Z,1008.2
2018-06-13T02:49:17.169Z,1008.22
2018-06-13T02:49:43.314Z,1008.23
2018-06-13T02:50:09.476Z,1008.24
2018-06-13T02:50:35.616Z,1008.23
2018-06-13T02:51:01.751Z,1008.21
2018-06-13T02:51:27.919Z,1008.23
2018-06-13T02:51:54.117Z,1008.23
2018-06-13T02:52:20.278Z,1008.23
2018-06-13T02:52:46.416Z,1008.22
2018-06-13T02:53:12.578Z,1008.23
2018-06-13T02:53:38.772Z,1008.25
2018-06-13T02:54:04.925Z,1008.24
2018-06-13T02:54:31.075Z,1008.16
2018-06-13T02:54:57.249Z,1008.22
2018-06-13T02:55:23.389Z,1008.21
2018-06-13T02:55:49.534Z,1008.2
2018-06-13T02:56:15.669Z,1008.21
2018-06-13T02:56:41.810Z,1008.22
2018-06-13T02:57:08.000Z,1008.2
2018-06-13T02:57:34.137Z,1008.22
2018-06-13T02:58:00.279Z,1008.24
2018-06-13T02:58:26.415Z,1008.25
2018-06-13T02:58:52.645Z,1008.27
2018-06-13T02:59:18.943Z,1008.26
2018-06-13T02:59:45.130Z,1008.23
2018-06-13T03:00:11.423Z,1008.25
2018-06-13T03:00:37.648Z,1008.26
2018-06-13T03:01:04.022Z,1008.25
2018-06-13T03:01:30.205Z,1008.28
2018-06-13T03:01:56.557Z,1008.28
2018-06-13T03:02:22.837Z,1008.27
2018-06-13T03:02:48.975Z,1008.3
2018-06-13T03:03:15.139Z,1008.35
2018-06-13T03:03:41.285Z,1008.29
2018-06-13T03:04:07.423Z,1008.29
2018-06-13T03:04:33.584Z,1008.3
2018-06-13T03:04:59.776Z,1008.31
2018-06-13T03:05:25.943Z,1008.3
2018-06-13T03:05:52.103Z,1008.26
2018-06-13T03:06:18.244Z,1008.25
2018-06-13T03:06:44.410Z,1008.32
2018-06-13T03:07:10.549Z,1008.29
2018-06-13T03:07:36.736Z,1008.26
2018-06-13T03:08:02.881Z,1008.27
2018-06-13T03:08:29.044Z,1008.23
2018-06-13T03:08:55.200Z,1008.23
2018-06-13T03:09:21.337Z,1008.2
2018-06-13T03:09:47.477Z,1008.2
2018-06-13T03:10:13.669Z,1008.24
2018-06-13T03:10:39.801Z,1008.22
2018-06-13T03:11:05.939Z,1008.23
2018-06-13T03:11:32.156Z,1008.26
2018-06-13T03:11:58.296Z,1008.23
2018-06-13T03:12:24.440Z,1008.23
2018-06-13T03:12:50.577Z,1008.25
2018-06-13T03:13:16.766Z,1008.25
2018-06-13T03:13:42.928Z,1008.28
2018-06-13T03:14:09.064Z,1008.27
2018-06-13T03:14:35.242Z,1008.24
2018-06-13T03:15:01.415Z,1008.25
2018-06-13T03:15:27.581Z,1008.27
2018-06-13T03:15:53.742Z,1008.26
2018-06-13T03:16:19.929Z,1008.28
2018-06-13T03:16:46.064Z,1008.29
2018-06-13T03:17:12.254Z,1008.29
2018-06-13T03:17:38.416Z,1008.27
2018-06-13T03:18:04.555Z,1008.29
2018-06-13T03:18:30.686Z,1008.29
2018-06-13T03:18:56.850Z,1008.29
2018-06-13T03:19:22.998Z,1008.31
2018-06-13T03:19:49.160Z,1008.29
2018-06-13T03:20:15.320Z,1008.31
2018-06-13T03:20:41.466Z,1008.34
2018-06-13T03:21:07.622Z,1008.3
2018-06-13T03:21:33.788Z,1008.32
2018-06-13T03:21:59.944Z,1008.33
2018-06-13T03:22:26.077Z,1008.33
2018-06-13T03:22:52.218Z,1008.35
2018-06-13T03:23:18.355Z,1008.36
2018-06-13T03:23:44.557Z,1008.37
2018-06-13T03:24:10.718Z,1008.37
2018-06-13T03:24:36.853Z,1008.41
2018-06-13T03:25:03.006Z,1008.38
2018-06-13T03:25:29.144Z,1008.4
2018-06-13T03:25:55.287Z,1008.37
2018-06-13T03:26:21.431Z,1008.4
2018-06-13T03:26:47.575Z,1008.35
2018-06-13T03:27:13.714Z,1008.35
2018-06-13T03:27:39.874Z,1008.37
2018-06-13T03:28:06.016Z,1008.33
2018-06-13T03:28:32.160Z,1008.38
2018-06-13T03:28:58.298Z,1008.36
2018-06-13T03:29:24.458Z,1008.39
2018-06-13T03:29:50.616Z,1008.38
2018-06-13T03:30:16.782Z,1008.39
2018-06-13T03:30:42.954Z,1008.37
2018-06-13T03:31:09.089Z,1008.39
2018-06-13T03:31:35.256Z,1008.4
2018-06-13T03:32:01.432Z,1008.41
2018-06-13T03:32:27.601Z,1008.36
2018-06-13T03:32:53.770Z,1008.38
2018-06-13T03:33:19.908Z,1008.37
2018-06-13T03:33:46.040Z,1008.38
2018-06-13T03:34:12.184Z,1008.43
2018-06-13T03:34:38.326Z,1008.37
2018-06-13T03:35:04.491Z,1008.42
2018-06-13T03:35:30.634Z,1008.39
2018-06-13T03:35:56.790Z,1008.4
2018-06-13T03:36:22.929Z,1008.37
2018-06-13T03:36:49.070Z,1008.39
2018-06-13T03:37:15.202Z,1008.37
2018-06-13T03:37:41.340Z,1008.35
2018-06-13T03:38:07.475Z,1008.35
2018-06-13T03:38:33.627Z,1008.33
2018-06-13T03:38:59.758Z,1008.36
2018-06-13T03:39:25.923Z,1008.36
2018-06-13T03:39:52.064Z,1008.35
2018-06-13T03:40:18.222Z,1008.33
2018-06-13T03:40:44.360Z,1008.35
2018-06-13T03:41:10.581Z,1008.35
2018-06-13T03:41:36.681Z,1008.34
2018-06-13T03:42:02.819Z,1008.33
2018-06-13T03:42:28.967Z,1008.32
2018-06-13T03:42:55.101Z,1008.38
2018-06-13T03:43:21.234Z,1008.34
2018-06-13T03:43:47.395Z,1008.32
2018-06-13T03:44:13.538Z,1008.35
2018-06-13T03:44:39.675Z,1008.31
2018-06-13T03:45:05.812Z,1008.32
2018-06-13T03:45:31.974Z,1008.33
2018-06-13T03:45:58.112Z,1008.36
2018-06-13T03:46:24.254Z,1008.39
2018-06-13T03:46:50.395Z,1008.36
2018-06-13T03:47:16.561Z,1008.39
2018-06-13T03:47:42.699Z,1008.34
2018-06-13T03:48:08.840Z,1008.37
2018-06-13T03:48:34.977Z,1008.38
2018-06-13T03:49:01.117Z,1008.37
2018-06-13T03:49:27.247Z,1008.39
2018-06-13T03:49:53.391Z,1008.41
2018-06-13T03:50:19.533Z,1008.42
2018-06-13T03:50:45.673Z,1008.41
2018-06-13T03:51:11.811Z,1008.39
2018-06-13T03:51:37.977Z,1008.4
2018-06-13T03:52:04.114Z,1008.39
2018-06-13T03:52:30.254Z,1008.45
2018-06-13T03:52:56.388Z,1008.42
2018-06-13T03:53:22.527Z,1008.44
2018-06-13T03:53:48.669Z,1008.46
2018-06-13T03:54:14.809Z,1008.44
2018-06-13T03:54:40.944Z,1008.47
2018-06-13T03:55:07.084Z,1008.48
2018-06-13T03:55:33.228Z,1008.46
2018-06-13T03:55:59.393Z,1008.46
2018-06-13T03:56:25.556Z,1008.45
2018-06-13T03:56:51.695Z,1008.46
2018-06-13T03:57:17.827Z,1008.46
2018-06-13T03:57:43.969Z,1008.5
2018-06-13T03:58:10.108Z,1008.51
2018-06-13T03:58:36.277Z,1008.45
2018-06-13T03:59:02.414Z,1008.47
2018-06-13T03:59:28.588Z,1008.49
2018-06-13T03:59:54.721Z,1008.49
2018-06-13T04:00:20.863Z,1008.47
2018-06-13T04:00:47.005Z,1008.45
2018-06-13T04:01:13.146Z,1008.48
2018-06-13T04:01:39.289Z,1008.5
2018-06-13T04:02:05.440Z,1008.52
2018-06-13T04:02:31.584Z,1008.52
2018-06-13T04:02:57.727Z,1008.48
2018-06-13T04:03:23.868Z,1008.5
2018-06-13T04:03:50.005Z,1008.52
2018-06-13T04:04:16.134Z,1008.49
2018-06-13T04:04:42.279Z,1008.48
2018-06-13T04:05:08.416Z,1008.51
2018-06-13T04:05:34.579Z,1008.51
2018-06-13T04:06:00.719Z,1008.49
2018-06-13T04:06:27.034Z,1008.52
2018-06-13T04:06:53.176Z,1008.5
2018-06-13T04:07:19.405Z,1008.52
2018-06-13T04:07:45.480Z,1008.51
2018-06-13T04:08:11.617Z,1008.52
2018-06-13T04:08:37.752Z,1008.49
2018-06-13T04:09:03.898Z,1008.5
2018-06-13T04:09:30.040Z,1008.51
2018-06-13T04:09:56.175Z,1008.5
2018-06-13T04:10:22.338Z,1008.52
2018-06-13T04:10:48.486Z,1008.47
2018-06-13T04:11:14.622Z,1008.51
2018-06-13T04:11:40.808Z,1008.49
2018-06-13T04:12:06.937Z,1008.54
2018-06-13T04:12:33.102Z,1008.53
2018-06-13T04:12:59.245Z,1008.52
2018-06-13T04:13:25.380Z,1008.57
2018-06-13T04:13:51.545Z,1008.52
2018-06-13T04:14:17.681Z,1008.54
2018-06-13T04:14:43.874Z,1008.55
2018-06-13T04:15:10.014Z,1008.53
2018-06-13T04:15:36.182Z,1008.58
2018-06-13T04:16:02.316Z,1008.54
2018-06-13T04:16:28.462Z,1008.54
2018-06-13T04:16:54.621Z,1008.53
2018-06-13T04:17:20.741Z,1008.5
2018-06-13T04:17:46.873Z,1008.57
2018-06-13T04:18:13.009Z,1008.57
2018-06-13T04:18:39.171Z,1008.53
2018-06-13T04:19:05.307Z,1008.57
2018-06-13T04:19:31.447Z,1008.54
2018-06-13T04:19:57.587Z,1008.56
2018-06-13T04:20:23.725Z,1008.59
2018-06-13T04:20:49.864Z,1008.59
2018-06-13T04:21:16.000Z,1008.61
2018-06-13T04:21:42.139Z,1008.56
2018-06-13T04:22:08.278Z,1008.57
2018-06-13T04:22:34.445Z,1008.57
2018-06-13T04:23:00.639Z,1008.57
2018-06-13T04:23:26.771Z,1008.53
2018-06-13T04:23:52.909Z,1008.56
2018-06-13T04:24:19.070Z,1008.56
2018-06-13T04:24:45.208Z,1008.56
2018-06-13T04:25:11.353Z,1008.58
2018-06-13T04:25:37.486Z,1008.57
2018-06-13T04:26:03.626Z,1008.56
2018-06-13T04:26:29.763Z,1008.57
2018-06-13T04:26:55.900Z,1008.59
2018-06-13T04:27:22.058Z,1008.59
2018-06-13T04:27:48.192Z,1008.6
2018-06-13T04:28:14.332Z,1008.59
2018-06-13T04:28:40.470Z,1008.58
2018-06-13T04:29:06.627Z,1008.59
2018-06-13T04:29:32.764Z,1008.61
2018-06-13T04:29:58.906Z,1008.63
2018-06-13T04:30:25.051Z,1008.62
2018-06-13T04:30:51.186Z,1008.61
2018-06-13T04:31:17.325Z,1008.6
2018-06-13T04:31:43.471Z,1008.6
2018-06-13T04:32:09.606Z,1008.62
2018-06-13T04:32:35.779Z,1008.6
2018-06-13T04:33:01.915Z,1008.58
2018-06-13T04:33:28.050Z,1008.61
2018-06-13T04:33:54.207Z,1008.57
2018-06-13T04:34:20.354Z,1008.63
2018-06-13T04:34:46.494Z,1008.58
2018-06-13T04:35:12.632Z,1008.58
2018-06-13T04:35:38.775Z,1008.61
2018-06-13T04:36:04.938Z,1008.62
2018-06-13T04:36:31.082Z,1008.59
2018-06-13T04:36:57.219Z,1008.6
2018-06-13T04:37:23.382Z,1008.61
2018-06-13T04:37:49.523Z,1008.6
2018-06-13T04:38:15.666Z,1008.62
2018-06-13T04:38:41.830Z,1008.57
2018-06-13T04:39:07.970Z,1008.55
2018-06-13T04:39:34.104Z,1008.63
2018-06-13T04:40:00.246Z,1008.59
2018-06-13T04:40:26.385Z,1008.62
2018-06-13T04:40:52.548Z,1008.62
2018-06-13T04:41:18.684Z,1008.61
2018-06-13T04:41:44.821Z,1008.58
2018-06-13T04:42:10.991Z,1008.57
2018-06-13T04:42:37.133Z,1008.6
2018-06-13T04:43:03.272Z,1008.59
2018-06-13T04:43:29.415Z,1008.62
2018-06-13T04:43:55.554Z,1008.65
2018-06-13T04:44:21.692Z,1008.62
2018-06-13T04:44:47.859Z,1008.66
2018-06-13T04:45:13.997Z,1008.67
2018-06-13T04:45:40.141Z,1008.62
2018-06-13T04:46:06.279Z,1008.64
2018-06-13T04:46:32.414Z,1008.62
2018-06-13T04:46:58.556Z,1008.6
2018-06-13T04:47:24.698Z,1008.6
2018-06-13T04:47:50.845Z,1008.56
2018-06-13T04:48:16.980Z,1008.57
2018-06-13T04:48:43.144Z,1008.57
2018-06-13T04:49:09.292Z,1008.63
2018-06-13T04:49:35.424Z,1008.57
2018-06-13T04:50:01.563Z,1008.57
2018-06-13T04:50:27.706Z,1008.58
2018-06-13T04:50:53.848Z,1008.55
2018-06-13T04:51:20.008Z,1008.53
2018-06-13T04:51:46.146Z,1008.55
2018-06-13T04:52:12.304Z,1008.56
2018-06-13T04:52:38.444Z,1008.52
2018-06-13T04:53:04.608Z,1008.53
2018-06-13T04:53:30.748Z,1008.51
2018-06-13T04:53:56.888Z,1008.51
2018-06-13T04:54:23.030Z,1008.52
2018-06-13T04:54:49.168Z,1008.49
2018-06-13T04:55:15.333Z,1008.5
2018-06-13T04:55:41.491Z,1008.49
2018-06-13T04:56:07.641Z,1008.51
2018-06-13T04:56:33.778Z,1008.46
2018-06-13T04:56:59.968Z,1008.45
2018-06-13T04:57:26.102Z,1008.48
2018-06-13T04:57:52.236Z,1008.49
2018-06-13T04:58:18.427Z,1008.48
2018-06-13T04:58:44.539Z,1008.49
2018-06-13T04:59:10.684Z,1008.5
2018-06-13T04:59:36.821Z,1008.5
2018-06-13T05:00:02.958Z,1008.5
2018-06-13T05:00:29.098Z,1008.52
2018-06-13T05:00:55.242Z,1008.53
2018-06-13T05:01:21.405Z,1008.52
2018-06-13T05:01:47.547Z,1008.5
2018-06-13T05:02:13.712Z,1008.51
2018-06-13T05:02:39.846Z,1008.53
2018-06-13T05:03:05.989Z,1008.53
2018-06-13T05:03:32.135Z,1008.5
2018-06-13T05:03:58.316Z,1008.51
2018-06-13T05:04:24.453Z,1008.52
2018-06-13T05:04:50.592Z,1008.5
2018-06-13T05:05:16.730Z,1008.48
2018-06-13T05:05:42.874Z,1008.5
2018-06-13T05:06:09.009Z,1008.5
2018-06-13T05:06:35.143Z,1008.5
2018-06-13T05:07:01.309Z,1008.49
2018-06-13T05:07:27.437Z,1008.51
2018-06-13T05:07:53.577Z,1008.5
2018-06-13T05:08:19.716Z,1008.53
2018-06-13T05:08:45.855Z,1008.52
2018-06-13T05:09:11.996Z,1008.56
2018-06-13T05:09:38.140Z,1008.59
2018-06-13T05:10:04.280Z,1008.52
2018-06-13T05:10:30.426Z,1008.55
2018-06-13T05:10:56.559Z,1008.55
2018-06-13T05:11:22.705Z,1008.55
2018-06-13T05:11:48.849Z,1008.58
2018-06-13T05:12:14.985Z,1008.6
2018-06-13T05:12:41.123Z,1008.61
2018-06-13T05:13:07.263Z,1008.6
2018-06-13T05:13:33.401Z,1008.6
2018-06-13T05:13:59.540Z,1008.6
2018-06-13T05:14:25.710Z,1008.57
2018-06-13T05:14:51.904Z,1008.64
2018-06-13T05:15:18.045Z,1008.6
2018-06-13T05:15:44.183Z,1008.63
2018-06-13T05:16:10.327Z,1008.69
2018-06-13T05:16:36.503Z,1008.66
2018-06-13T05:17:02.800Z,1008.65
2018-06-13T05:17:29.008Z,1008.67